createdAt,value
2019-02-05T00:00:58.099Z,17.67
2019-02-05T00:03:32.110Z,17.67
2019-02-05T00:06:07.316Z,18.83
2019-02-05T00:08:43.581Z,20.43
2019-02-05T00:11:20.109Z,17.63
2019-02-05T00:13:55.693Z,18.00
2019-02-05T00:16:30.318Z,17.37
2019-02-05T00:19:05.965Z,19.50
2019-02-05T00:21:42.100Z,18.27
2019-02-05T00:24:16.646Z,19.13
2019-02-05T00:26:52.125Z,18.00
2019-02-05T00:29:27.330Z,18.50
2019-02-05T00:32:03.101Z,18.63
2019-02-05T00:34:39.101Z,18.37
2019-02-05T00:37:14.475Z,18.90
2019-02-05T00:39:52.583Z,18.43
2019-02-05T00:42:28.439Z,17.53
2019-02-05T00:45:04.499Z,19.50
2019-02-05T00:47:43.432Z,18.13
2019-02-05T00:50:20.807Z,18.63
2019-02-05T00:52:59.422Z,18.50
2019-02-05T00:55:36.503Z,18.53
2019-02-05T00:58:11.539Z,18.20
2019-02-05T01:00:46.103Z,19.03
2019-02-05T01:03:21.605Z,18.37
2019-02-05T01:05:57.662Z,18.23
2019-02-05T01:08:33.310Z,19.07
2019-02-05T01:11:09.991Z,20.10
2019-02-05T01:13:44.103Z,19.07
2019-02-05T01:16:18.615Z,18.73
2019-02-05T01:18:53.109Z,18.73
2019-02-05T01:21:27.105Z,18.00
2019-02-05T01:24:03.133Z,17.33
2019-02-05T01:26:39.803Z,19.53
2019-02-05T01:29:14.107Z,19.77
2019-02-05T01:31:48.611Z,18.97
2019-02-05T01:34:24.055Z,18.50
2019-02-05T01:36:59.121Z,18.20
2019-02-05T01:39:35.965Z,17.53
2019-02-05T01:42:10.383Z,18.27
2019-02-05T01:44:44.599Z,18.13
2019-02-05T01:47:20.655Z,18.60
2019-02-05T01:49:55.486Z,17.80
2019-02-05T01:52:32.568Z,18.60
2019-02-05T01:55:08.110Z,18.03
2019-02-05T01:57:44.112Z,19.17
2019-02-05T02:00:22.584Z,17.77
2019-02-05T02:02:58.647Z,18.30
2019-02-05T02:05:34.114Z,20.80
2019-02-05T02:08:08.123Z,19.53
2019-02-05T02:10:44.355Z,18.77
2019-02-05T02:13:19.111Z,19.57
2019-02-05T02:15:53.602Z,19.97
2019-02-05T02:18:29.659Z,20.63
2019-02-05T02:21:05.135Z,20.73
2019-02-05T02:23:42.111Z,20.13
2019-02-05T02:26:16.398Z,19.40
2019-02-05T02:28:53.480Z,20.40
2019-02-05T02:31:29.538Z,18.67
2019-02-05T02:34:06.113Z,20.17
2019-02-05T02:36:41.111Z,18.97
2019-02-05T02:39:16.110Z,18.53
2019-02-05T02:41:50.109Z,19.13
2019-02-05T02:44:24.132Z,19.43
2019-02-05T02:46:59.329Z,18.40
2019-02-05T02:49:35.112Z,20.80
2019-02-05T02:52:09.600Z,19.83
2019-02-05T02:54:45.112Z,20.00
2019-02-05T02:57:20.706Z,19.30
2019-02-05T02:59:55.316Z,19.67
2019-02-05T03:02:31.375Z,19.77
2019-02-05T03:05:08.112Z,18.20
2019-02-05T03:07:43.115Z,19.50
2019-02-05T03:10:27.328Z,19.63
2019-02-05T03:16:45.597Z,18.57
2019-02-05T03:19:23.121Z,21.00
2019-02-05T03:21:59.553Z,19.30
2019-02-05T03:24:35.619Z,18.03
2019-02-05T03:27:17.927Z,20.20
2019-02-05T03:29:51.691Z,20.30
2019-02-05T03:32:28.710Z,20.53
2019-02-05T03:35:06.396Z,18.93
2019-02-05T03:37:43.902Z,17.73
2019-02-05T03:41:09.710Z,20.00
2019-02-05T03:43:47.813Z,20.13
2019-02-05T03:46:23.681Z,21.37
2019-02-05T03:49:05.684Z,21.37
2019-02-05T03:52:04.661Z,21.33
2019-02-05T03:55:39.505Z,20.97
2019-02-05T03:58:57.158Z,21.63
2019-02-05T04:01:54.685Z,19.33
2019-02-05T04:05:02.169Z,21.13
2019-02-05T04:11:39.388Z,20.40
2019-02-05T04:14:59.683Z,22.67
2019-02-05T04:18:10.352Z,21.80
2019-02-05T04:21:23.480Z,22.27
2019-02-05T04:24:22.679Z,21.47
2019-02-05T04:27:24.335Z,21.70
2019-02-05T04:33:59.598Z,20.77
2019-02-05T04:37:01.141Z,23.40
2019-02-05T04:39:59.842Z,23.73
2019-02-05T04:42:49.621Z,22.67
2019-02-05T04:46:10.151Z,21.03
2019-02-05T04:49:41.689Z,21.53
2019-02-05T04:52:51.150Z,19.67
2019-02-05T04:55:48.684Z,20.47
2019-02-05T04:59:04.140Z,19.30
2019-02-05T05:02:05.512Z,19.97
2019-02-05T05:04:48.153Z,19.63
2019-02-05T05:07:45.138Z,19.40
2019-02-05T05:13:47.566Z,19.77
2019-02-05T05:16:23.419Z,19.43
2019-02-05T05:18:58.656Z,18.73
2019-02-05T05:21:33.143Z,18.60
2019-02-05T05:24:08.732Z,18.77
2019-02-05T05:26:44.372Z,20.23
2019-02-05T05:29:19.610Z,20.57
2019-02-05T05:31:56.488Z,17.53
2019-02-05T05:34:31.151Z,19.90
2019-02-05T05:37:01.145Z,19.10
2019-02-05T05:39:36.671Z,17.90
2019-02-05T05:42:12.729Z,16.33
2019-02-05T05:44:50.425Z,18.13
2019-02-05T05:47:28.735Z,16.63
2019-02-05T05:50:08.171Z,17.13
2019-02-05T05:52:44.538Z,17.53
2019-02-05T05:55:20.799Z,18.77
2019-02-05T05:57:56.446Z,17.80
2019-02-05T06:00:34.183Z,18.37
2019-02-05T06:03:09.588Z,17.03
2019-02-05T06:05:45.169Z,18.10
2019-02-05T06:08:20.679Z,19.87
2019-02-05T06:10:56.174Z,18.83
2019-02-05T06:13:34.635Z,18.93
2019-02-05T06:16:11.716Z,19.97
2019-02-05T06:18:47.569Z,19.43
2019-02-05T06:21:23.013Z,19.33
2019-02-05T06:24:00.504Z,17.67
2019-02-05T06:26:35.743Z,19.67
2019-02-05T06:29:11.596Z,20.40
2019-02-05T06:36:00.580Z,20.47
2019-02-05T06:38:35.408Z,20.63
2019-02-05T06:44:40.771Z,20.07
2019-02-05T06:50:56.957Z,18.23
2019-02-05T06:53:34.686Z,18.40
2019-02-05T06:56:10.741Z,19.40
2019-02-05T06:58:46.756Z,18.57
2019-02-05T07:01:22.654Z,19.20
2019-02-05T07:04:00.764Z,19.73
2019-02-05T07:06:37.639Z,20.00
2019-02-05T07:09:15.540Z,19.87
2019-02-05T07:11:51.798Z,17.50
2019-02-05T07:14:29.703Z,18.83
2019-02-05T07:17:10.880Z,21.70
2019-02-05T07:19:44.477Z,19.80
2019-02-05T07:22:20.943Z,20.17
2019-02-05T07:24:56.803Z,18.07
2019-02-05T07:27:33.879Z,20.03
2019-02-05T07:30:10.959Z,18.73
2019-02-05T07:32:46.267Z,19.93
2019-02-05T07:35:20.821Z,19.93
2019-02-05T07:37:59.753Z,18.30
2019-02-05T07:40:34.779Z,18.83
2019-02-05T07:43:09.814Z,18.70
2019-02-05T07:45:45.286Z,17.93
2019-02-05T07:51:39.266Z,19.40
2019-02-05T07:57:53.935Z,19.43
2019-02-05T08:00:36.269Z,19.47
2019-02-05T08:03:12.271Z,19.40
2019-02-05T08:05:46.818Z,19.00
2019-02-05T08:08:23.488Z,18.20
2019-02-05T08:10:59.750Z,19.27
2019-02-05T08:13:36.627Z,19.77
2019-02-05T08:16:11.661Z,20.47
2019-02-05T08:18:46.903Z,21.33
2019-02-05T08:21:22.548Z,19.10
2019-02-05T08:23:58.812Z,19.30
2019-02-05T08:26:34.287Z,20.70
2019-02-05T08:32:37.773Z,19.97
2019-02-05T08:35:14.279Z,19.70
2019-02-05T08:37:49.888Z,19.07
2019-02-05T08:40:26.781Z,18.27
2019-02-05T08:43:02.276Z,19.43
2019-02-05T08:45:38.294Z,19.30
2019-02-05T08:48:15.275Z,18.93
2019-02-05T08:50:50.587Z,19.33
2019-02-05T08:53:25.823Z,18.63
2019-02-05T08:56:01.298Z,21.17
2019-02-05T08:58:35.892Z,17.60
2019-02-05T09:01:14.396Z,19.07
2019-02-05T09:03:50.668Z,18.47
2019-02-05T09:12:25.739Z,19.93
2019-02-05T09:15:01.459Z,24.23
2019-02-05T09:17:37.477Z,20.70
2019-02-05T09:20:15.452Z,22.83
2019-02-05T09:22:50.799Z,22.03
2019-02-05T09:25:27.666Z,21.80
2019-02-05T09:28:04.717Z,20.20
2019-02-05T09:30:41.155Z,19.93
2019-02-05T09:33:20.653Z,21.27
2019-02-05T09:39:46.152Z,22.33
2019-02-05T09:45:57.609Z,21.20
2019-02-05T09:48:36.516Z,21.77
2019-02-05T09:51:19.539Z,20.17
2019-02-05T09:53:59.024Z,22.07
2019-02-05T09:56:33.502Z,22.53
2019-02-05T09:59:12.012Z,21.90
2019-02-05T10:01:49.711Z,20.17
2019-02-05T10:04:25.765Z,21.33
2019-02-05T10:07:03.156Z,21.60
2019-02-05T10:12:47.532Z,21.20
2019-02-05T10:18:53.716Z,22.03
2019-02-05T10:25:02.759Z,20.50
2019-02-05T10:31:07.220Z,18.53
2019-02-05T10:33:54.715Z,20.07
2019-02-05T10:36:24.536Z,20.37
2019-02-05T10:39:03.773Z,18.90
2019-02-05T10:41:38.495Z,20.93
2019-02-05T10:47:18.171Z,20.47
2019-02-05T10:53:03.140Z,18.97
2019-02-05T10:55:37.973Z,19.90
2019-02-05T10:58:15.461Z,20.40
2019-02-05T11:01:07.084Z,19.17
2019-02-05T11:03:42.861Z,19.40
2019-02-05T11:06:19.901Z,18.23
2019-02-05T11:08:53.206Z,17.90
2019-02-05T11:11:28.442Z,18.53
2019-02-05T11:14:10.032Z,21.23
2019-02-05T11:16:45.686Z,17.13
2019-02-05T11:19:23.800Z,18.93
2019-02-05T11:22:01.890Z,18.30
2019-02-05T11:24:39.791Z,17.53
2019-02-05T11:27:15.503Z,16.03
2019-02-05T11:33:30.847Z,16.40
2019-02-05T11:39:34.971Z,17.60
2019-02-05T11:45:51.537Z,17.60
2019-02-05T11:48:27.455Z,17.27
2019-02-05T11:51:02.541Z,17.23
2019-02-05T11:56:53.920Z,17.40
2019-02-05T11:59:28.750Z,17.83
2019-02-05T12:02:02.759Z,17.40
2019-02-05T12:04:36.975Z,18.27
2019-02-05T12:07:12.008Z,18.90
2019-02-05T12:09:47.040Z,18.83
2019-02-05T12:12:21.870Z,16.23
2019-02-05T12:14:58.746Z,17.70
2019-02-05T12:17:35.421Z,17.17
2019-02-05T12:20:13.113Z,16.97
2019-02-05T12:22:48.965Z,17.30
2019-02-05T12:25:24.827Z,16.63
2019-02-05T12:28:00.546Z,16.23
2019-02-05T12:30:44.535Z,16.80
2019-02-05T12:33:20.776Z,16.57
2019-02-05T12:35:57.037Z,16.63
2019-02-05T12:41:38.041Z,18.00
2019-02-05T12:47:42.162Z,17.33
2019-02-05T12:50:20.560Z,17.40
2019-02-05T12:52:55.576Z,17.80
2019-02-05T12:58:39.213Z,17.00
2019-02-05T13:04:41.689Z,17.80
2019-02-05T13:10:46.815Z,18.93
2019-02-05T13:16:55.333Z,17.63
2019-02-05T13:22:59.800Z,18.90
2019-02-05T13:29:04.747Z,19.73
2019-02-05T13:31:40.806Z,21.27
2019-02-05T13:34:17.070Z,23.53
2019-02-05T13:40:21.234Z,22.07
2019-02-05T13:42:55.620Z,23.23
2019-02-05T13:45:34.750Z,23.03
2019-02-05T13:48:10.223Z,23.37
2019-02-05T13:50:45.432Z,22.30
2019-02-05T13:53:20.670Z,20.27
2019-02-05T13:55:55.498Z,24.27
2019-02-05T13:58:31.226Z,22.63
2019-02-05T14:01:05.227Z,22.67
2019-02-05T14:03:40.228Z,22.70
2019-02-05T14:06:14.609Z,21.13
2019-02-05T14:08:49.849Z,21.20
2019-02-05T14:11:25.700Z,21.63
2019-02-05T14:14:01.553Z,19.87
2019-02-05T14:16:39.454Z,21.13
2019-02-05T14:19:15.101Z,19.70
2019-02-05T14:21:54.251Z,20.47
2019-02-05T14:24:31.776Z,20.33
2019-02-05T14:27:10.446Z,21.37
2019-02-05T14:29:46.499Z,20.30
2019-02-05T14:32:22.606Z,21.33
2019-02-05T14:34:57.414Z,20.93
2019-02-05T14:37:38.973Z,20.93
2019-02-05T14:40:19.932Z,21.13
2019-02-05T14:43:01.439Z,21.37
2019-02-05T14:45:36.158Z,21.93
2019-02-05T14:48:12.888Z,22.23
2019-02-05T14:50:48.383Z,21.33
2019-02-05T14:53:24.127Z,21.27
2019-02-05T14:56:00.181Z,21.50
2019-02-05T14:58:38.829Z,21.67
2019-02-05T15:04:17.671Z,23.23
2019-02-05T15:10:19.728Z,22.10
2019-02-05T15:12:55.222Z,20.63
2019-02-05T15:15:29.422Z,22.17
2019-02-05T15:18:03.425Z,21.57
2019-02-05T15:20:42.139Z,22.33
2019-02-05T15:23:18.139Z,21.33
2019-02-05T15:25:58.786Z,21.50
2019-02-05T15:28:33.870Z,22.17
2019-02-05T15:31:17.306Z,20.10
2019-02-05T15:34:06.468Z,19.90
2019-02-05T15:36:43.376Z,21.50
2019-02-05T15:39:18.582Z,20.10
2019-02-05T15:45:26.091Z,22.57
2019-02-05T15:51:28.929Z,21.00
2019-02-05T15:57:32.382Z,22.43
2019-02-05T16:03:39.828Z,21.30
2019-02-05T16:13:18.583Z,26.33
2019-02-05T16:19:11.688Z,40.30
2019-02-05T16:25:16.854Z,28.40
2019-02-05T16:31:32.431Z,22.27
2019-02-05T16:34:22.851Z,20.90
2019-02-05T16:37:03.806Z,20.90
2019-02-05T16:39:40.492Z,23.67
2019-02-05T16:42:17.756Z,22.33
2019-02-05T16:44:54.183Z,23.03
2019-02-05T16:47:29.993Z,23.27
2019-02-05T16:50:05.994Z,22.90
2019-02-05T16:52:46.825Z,22.93
2019-02-05T16:55:23.378Z,21.27
2019-02-05T16:58:04.548Z,22.27
2019-02-05T17:00:41.626Z,23.13
2019-02-05T17:03:17.479Z,25.10
2019-02-05T17:05:53.550Z,21.67
2019-02-05T17:08:32.759Z,22.03
2019-02-05T17:11:10.783Z,23.57
2019-02-05T17:13:50.726Z,21.83
2019-02-05T17:16:27.414Z,23.60
2019-02-05T17:19:06.544Z,21.47
2019-02-05T17:21:42.577Z,22.17
2019-02-05T17:24:22.322Z,22.47
2019-02-05T17:26:58.380Z,24.20
2019-02-05T17:29:33.618Z,22.97
2019-02-05T17:32:10.293Z,23.77
2019-02-05T17:34:45.031Z,23.93
2019-02-05T17:37:27.524Z,24.13
2019-02-05T17:40:06.450Z,24.60
2019-02-05T17:42:42.508Z,24.20
2019-02-05T17:45:22.251Z,24.27
2019-02-05T17:47:58.333Z,23.23
2019-02-05T17:50:34.368Z,23.77
2019-02-05T17:53:10.045Z,22.73
2019-02-05T17:55:47.715Z,24.73
2019-02-05T17:58:23.022Z,23.80
2019-02-05T18:01:15.028Z,26.80
2019-02-05T18:03:50.090Z,24.20
2019-02-05T18:06:24.433Z,25.10
2019-02-05T18:09:00.903Z,22.83
2019-02-05T18:11:39.224Z,22.90
2019-02-05T18:14:14.244Z,24.73
2019-02-05T18:17:06.480Z,24.17
2019-02-05T18:19:42.029Z,27.03
2019-02-05T18:22:17.572Z,43.20
2019-02-05T18:24:52.604Z,28.87
2019-02-05T18:27:28.459Z,25.77
2019-02-05T18:30:03.029Z,23.13
2019-02-05T18:32:37.705Z,26.13
2019-02-05T18:35:14.377Z,27.27
2019-02-05T18:37:51.027Z,24.83
2019-02-05T18:40:26.034Z,24.60
2019-02-05T18:43:01.529Z,24.17
2019-02-05T18:45:37.203Z,24.57
2019-02-05T18:48:16.714Z,24.97
2019-02-05T18:50:51.746Z,24.97
2019-02-05T18:53:31.703Z,25.77
2019-02-05T18:56:07.382Z,25.17
2019-02-05T18:58:46.062Z,24.17
2019-02-05T19:01:21.916Z,23.67
2019-02-05T19:04:06.408Z,25.97
2019-02-05T19:06:43.248Z,24.60
2019-02-05T19:09:22.582Z,25.60
2019-02-05T19:12:01.746Z,25.50
2019-02-05T19:14:34.904Z,26.23
2019-02-05T19:17:09.388Z,27.20
2019-02-05T19:19:45.790Z,26.67
2019-02-05T19:22:22.665Z,27.80
2019-02-05T19:25:02.614Z,28.13
2019-02-05T19:27:38.387Z,25.53
2019-02-05T19:30:14.730Z,26.70
2019-02-05T19:32:50.990Z,25.70
2019-02-05T19:35:27.048Z,25.10
2019-02-05T19:38:03.925Z,26.20
2019-02-05T19:40:43.671Z,26.40
2019-02-05T19:43:23.470Z,26.73
2019-02-05T19:46:29.985Z,26.63
2019-02-05T19:49:22.010Z,25.03
2019-02-05T19:51:57.869Z,29.03
2019-02-05T19:54:33.407Z,27.57
2019-02-05T19:57:08.962Z,25.53
2019-02-05T19:59:44.610Z,26.73
2019-02-05T20:02:21.897Z,27.37
2019-02-05T20:04:57.404Z,26.00
2019-02-05T20:07:32.445Z,25.83
2019-02-05T20:10:07.814Z,25.30
2019-02-05T20:16:02.938Z,25.83
2019-02-05T20:18:40.019Z,24.70
2019-02-05T20:21:18.329Z,25.47
2019-02-05T20:23:52.560Z,25.37
2019-02-05T20:26:29.298Z,26.03
2019-02-05T20:29:03.021Z,25.43
2019-02-05T20:31:41.491Z,27.83
2019-02-05T20:34:23.229Z,27.30
2019-02-05T20:37:04.631Z,26.10
2019-02-05T20:39:39.130Z,27.63
2019-02-05T20:42:17.520Z,28.13
2019-02-05T20:44:53.292Z,26.30
2019-02-05T20:47:31.506Z,28.90
2019-02-05T20:50:07.251Z,26.43
2019-02-05T20:52:43.824Z,26.53
2019-02-05T20:55:20.287Z,25.17
2019-02-05T20:58:03.226Z,24.87
2019-02-05T21:00:41.518Z,25.93
2019-02-05T21:03:16.389Z,28.23
2019-02-05T21:05:53.015Z,25.97
2019-02-05T21:08:29.106Z,27.13
2019-02-05T21:11:06.205Z,24.60
2019-02-05T21:13:41.042Z,25.47
2019-02-05T21:16:22.272Z,25.17
2019-02-05T21:18:58.116Z,27.37
2019-02-05T21:21:35.259Z,25.03
2019-02-05T21:24:10.231Z,25.30
2019-02-05T21:26:45.706Z,23.63
2019-02-05T21:29:20.742Z,24.00
2019-02-05T21:31:56.171Z,24.37
2019-02-05T21:34:31.730Z,24.23
2019-02-05T21:37:11.647Z,25.57
2019-02-05T21:39:49.548Z,25.63
2019-02-05T21:42:32.477Z,24.30
2019-02-05T21:45:12.417Z,23.10
2019-02-05T21:47:55.717Z,27.13
2019-02-05T21:50:37.022Z,24.27
2019-02-05T21:53:20.554Z,24.10
2019-02-05T21:55:58.659Z,25.07
2019-02-05T21:58:34.138Z,24.00
2019-02-05T22:04:38.544Z,23.53
2019-02-05T22:07:14.607Z,24.67
2019-02-05T22:09:50.683Z,25.90
2019-02-05T22:12:26.346Z,23.70
2019-02-05T22:15:01.409Z,23.47
2019-02-05T22:21:04.210Z,24.50
2019-02-05T22:27:14.287Z,24.47
2019-02-05T22:33:27.966Z,23.90
2019-02-05T22:39:28.731Z,21.77
2019-02-05T22:42:03.356Z,22.07
2019-02-05T22:44:39.136Z,24.53
2019-02-05T22:50:44.779Z,23.23
2019-02-05T22:53:20.632Z,23.30
2019-02-05T22:55:56.140Z,24.67
2019-02-05T23:02:06.349Z,23.87
2019-02-05T23:05:03.706Z,23.37
2019-02-05T23:07:39.558Z,23.17
2019-02-05T23:10:43.472Z,24.13
2019-02-05T23:13:24.136Z,24.90
2019-02-05T23:19:27.553Z,23.40
2019-02-05T23:22:01.563Z,23.90
2019-02-05T23:24:38.028Z,25.83
2019-02-05T23:27:13.472Z,24.17
2019-02-05T23:29:49.531Z,26.47
2019-02-05T23:32:27.139Z,25.13
2019-02-05T23:35:02.925Z,24.57
2019-02-05T23:37:38.142Z,22.97
2019-02-05T23:40:16.648Z,24.83
2019-02-05T23:42:53.143Z,24.87
2019-02-05T23:45:28.745Z,24.87
2019-02-05T23:48:06.445Z,24.97
2019-02-05T23:50:47.819Z,24.43
2019-02-05T23:53:24.504Z,24.93
2019-02-05T23:56:01.147Z,24.20
2019-02-05T23:58:39.418Z,25.17
